sensor_id;sensor_type;location;lat;lon;timestamp;temperature;humidity
75022;SHT31;63583;49.976;20.182;2023-04-03T00:01:09;1.45;98.45
75022;SHT31;63583;49.976;20.182;2023-04-03T00:03:35;1.35;98.12
75022;SHT31;63583;49.976;20.182;2023-04-03T00:06:03;1.03;98.45
75022;SHT31;63583;49.976;20.182;2023-04-03T00:08:29;0.90;99.30
75022;SHT31;63583;49.976;20.182;2023-04-03T00:10:56;0.93;99.35
75022;SHT31;63583;49.976;20.182;2023-04-03T00:13:23;0.90;99.06
75022;SHT31;63583;49.976;20.182;2023-04-03T00:15:48;0.88;99.00
75022;SHT31;63583;49.976;20.182;2023-04-03T00:18:14;1.00;99.07
75022;SHT31;63583;49.976;20.182;2023-04-03T00:20:40;1.00;98.72
75022;SHT31;63583;49.976;20.182;2023-04-03T00:23:06;0.87;99.07
75022;SHT31;63583;49.976;20.182;2023-04-03T00:25:32;0.98;99.23
75022;SHT31;63583;49.976;20.182;2023-04-03T00:27:57;1.03;99.13
75022;SHT31;63583;49.976;20.182;2023-04-03T00:30:23;0.94;99.19
75022;SHT31;63583;49.976;20.182;2023-04-03T00:32:50;0.90;99.05
75022;SHT31;63583;49.976;20.182;2023-04-03T00:35:17;0.87;99.24
75022;SHT31;63583;49.976;20.182;2023-04-03T00:37:43;0.93;99.25
75022;SHT31;63583;49.976;20.182;2023-04-03T00:40:10;0.93;99.36
75022;SHT31;63583;49.976;20.182;2023-04-03T00:42:36;1.00;98.98
75022;SHT31;63583;49.976;20.182;2023-04-03T00:47:29;0.98;98.79
75022;SHT31;63583;49.976;20.182;2023-04-03T00:49:56;0.85;98.67
75022;SHT31;63583;49.976;20.182;2023-04-03T00:52:26;0.76;98.92
75022;SHT31;63583;49.976;20.182;2023-04-03T00:54:57;0.66;99.16
75022;SHT31;63583;49.976;20.182;2023-04-03T00:57:25;0.70;99.24
75022;SHT31;63583;49.976;20.182;2023-04-03T00:59:55;0.67;99.44
75022;SHT31;63583;49.976;20.182;2023-04-03T01:02:22;0.67;99.44
75022;SHT31;63583;49.976;20.182;2023-04-03T01:04:48;0.59;99.52
75022;SHT31;63583;49.976;20.182;2023-04-03T01:07:18;0.64;99.84
75022;SHT31;63583;49.976;20.182;2023-04-03T01:09:46;0.62;99.63
75022;SHT31;63583;49.976;20.182;2023-04-03T01:12:18;0.50;99.71
75022;SHT31;63583;49.976;20.182;2023-04-03T01:14:44;0.45;99.99
75022;SHT31;63583;49.976;20.182;2023-04-03T01:25:45;0.35;99.99
75022;SHT31;63583;49.976;20.182;2023-04-03T01:28:16;0.30;99.99
75022;SHT31;63583;49.976;20.182;2023-04-03T01:30:54;0.30;99.99
75022;SHT31;63583;49.976;20.182;2023-04-03T01:33:23;0.33;99.99
75022;SHT31;63583;49.976;20.182;2023-04-03T01:35:49;0.32;99.99
75022;SHT31;63583;49.976;20.182;2023-04-03T01:38:15;0.25;99.99
75022;SHT31;63583;49.976;20.182;2023-04-03T01:40:41;0.26;99.99
75022;SHT31;63583;49.976;20.182;2023-04-03T01:43:07;0.29;99.99
75022;SHT31;63583;49.976;20.182;2023-04-03T01:45:32;0.19;99.99
75022;SHT31;63583;49.976;20.182;2023-04-03T01:47:58;0.29;99.99
75022;SHT31;63583;49.976;20.182;2023-04-03T01:50:24;0.30;99.99
75022;SHT31;63583;49.976;20.182;2023-04-03T01:52:50;0.32;99.99
75022;SHT31;63583;49.976;20.182;2023-04-03T01:55:15;0.36;99.99
75022;SHT31;63583;49.976;20.182;2023-04-03T01:57:41;0.30;99.99
75022;SHT31;63583;49.976;20.182;2023-04-03T02:00:07;0.28;99.99
75022;SHT31;63583;49.976;20.182;2023-04-03T02:02:33;0.29;99.99
75022;SHT31;63583;49.976;20.182;2023-04-03T02:04:58;0.33;99.99
75022;SHT31;63583;49.976;20.182;2023-04-03T02:07:24;0.32;99.99
75022;SHT31;63583;49.976;20.182;2023-04-03T02:09:50;0.33;99.99
75022;SHT31;63583;49.976;20.182;2023-04-03T02:12:16;0.39;99.99
75022;SHT31;63583;49.976;20.182;2023-04-03T02:14:42;0.36;99.99
75022;SHT31;63583;49.976;20.182;2023-04-03T02:17:08;0.38;99.99
75022;SHT31;63583;49.976;20.182;2023-04-03T02:19:34;0.36;99.99
75022;SHT31;63583;49.976;20.182;2023-04-03T02:22:04;0.33;99.99
75022;SHT31;63583;49.976;20.182;2023-04-03T02:24:30;0.32;99.99
75022;SHT31;63583;49.976;20.182;2023-04-03T02:26:56;0.33;99.99
75022;SHT31;63583;49.976;20.182;2023-04-03T02:29:22;0.26;99.99
75022;SHT31;63583;49.976;20.182;2023-04-03T02:31:49;0.35;99.99
75022;SHT31;63583;49.976;20.182;2023-04-03T02:34:14;0.29;99.99
75022;SHT31;63583;49.976;20.182;2023-04-03T02:36:40;0.29;99.99
75022;SHT31;63583;49.976;20.182;2023-04-03T02:39:06;0.36;99.99
75022;SHT31;63583;49.976;20.182;2023-04-03T02:41:32;0.38;99.99
75022;SHT31;63583;49.976;20.182;2023-04-03T02:44:01;0.35;99.99
75022;SHT31;63583;49.976;20.182;2023-04-03T02:46:27;0.32;99.99
75022;SHT31;63583;49.976;20.182;2023-04-03T02:48:53;0.33;99.99
75022;SHT31;63583;49.976;20.182;2023-04-03T02:51:19;0.35;99.99
75022;SHT31;63583;49.976;20.182;2023-04-03T02:53:44;0.35;99.99
75022;SHT31;63583;49.976;20.182;2023-04-03T02:56:10;0.36;99.99
75022;SHT31;63583;49.976;20.182;2023-04-03T02:58:36;0.35;99.99
75022;SHT31;63583;49.976;20.182;2023-04-03T03:01:02;0.33;99.99
75022;SHT31;63583;49.976;20.182;2023-04-03T03:03:28;0.33;99.99
75022;SHT31;63583;49.976;20.182;2023-04-03T03:06:14;0.35;99.99
75022;SHT31;63583;49.976;20.182;2023-04-03T03:08:41;0.35;99.99
75022;SHT31;63583;49.976;20.182;2023-04-03T03:11:07;0.33;99.99
75022;SHT31;63583;49.976;20.182;2023-04-03T03:13:33;0.29;99.99
75022;SHT31;63583;49.976;20.182;2023-04-03T03:15:59;0.32;99.99
75022;SHT31;63583;49.976;20.182;2023-04-03T03:18:25;0.24;99.99
75022;SHT31;63583;49.976;20.182;2023-04-03T03:20:55;0.25;99.99
75022;SHT31;63583;49.976;20.182;2023-04-03T03:23:22;0.26;99.99
75022;SHT31;63583;49.976;20.182;2023-04-03T03:25:48;0.28;99.85
75022;SHT31;63583;49.976;20.182;2023-04-03T03:28:14;0.18;99.96
75022;SHT31;63583;49.976;20.182;2023-04-03T03:30:40;0.21;99.99
75022;SHT31;63583;49.976;20.182;2023-04-03T03:33:06;0.18;99.99
75022;SHT31;63583;49.976;20.182;2023-04-03T03:35:32;0.24;99.99
75022;SHT31;63583;49.976;20.182;2023-04-03T03:37:57;0.26;99.99
75022;SHT31;63583;49.976;20.182;2023-04-03T03:40:23;0.25;99.99
75022;SHT31;63583;49.976;20.182;2023-04-03T03:42:48;0.26;99.99
75022;SHT31;63583;49.976;20.182;2023-04-03T03:45:14;0.28;99.98
75022;SHT31;63583;49.976;20.182;2023-04-03T03:47:40;0.30;99.69
75022;SHT31;63583;49.976;20.182;2023-04-03T03:50:06;0.21;99.87
75022;SHT31;63583;49.976;20.182;2023-04-03T03:52:32;0.32;99.83
75022;SHT31;63583;49.976;20.182;2023-04-03T03:54:58;0.30;99.62
75022;SHT31;63583;49.976;20.182;2023-04-03T03:57:23;0.28;99.55
75022;SHT31;63583;49.976;20.182;2023-04-03T03:59:49;0.30;99.57
75022;SHT31;63583;49.976;20.182;2023-04-03T04:02:16;0.32;99.66
75022;SHT31;63583;49.976;20.182;2023-04-03T04:04:42;0.30;99.75
75022;SHT31;63583;49.976;20.182;2023-04-03T04:07:08;0.29;99.64
75022;SHT31;63583;49.976;20.182;2023-04-03T04:09:33;0.32;99.74
75022;SHT31;63583;49.976;20.182;2023-04-03T04:11:59;0.32;99.70
75022;SHT31;63583;49.976;20.182;2023-04-03T04:14:25;0.33;99.75
75022;SHT31;63583;49.976;20.182;2023-04-03T04:16:50;0.30;99.73
75022;SHT31;63583;49.976;20.182;2023-04-03T04:19:16;0.29;99.57
75022;SHT31;63583;49.976;20.182;2023-04-03T04:21:42;0.30;99.66
75022;SHT31;63583;49.976;20.182;2023-04-03T04:24:08;0.24;99.62
75022;SHT31;63583;49.976;20.182;2023-04-03T04:26:33;0.19;99.85
75022;SHT31;63583;49.976;20.182;2023-04-03T04:29:00;0.22;99.99
75022;SHT31;63583;49.976;20.182;2023-04-03T04:31:25;0.25;99.63
75022;SHT31;63583;49.976;20.182;2023-04-03T04:33:52;0.16;99.78
75022;SHT31;63583;49.976;20.182;2023-04-03T04:36:18;0.29;99.82
75022;SHT31;63583;49.976;20.182;2023-04-03T04:38:44;0.28;99.46
75022;SHT31;63583;49.976;20.182;2023-04-03T04:41:09;0.26;99.33
75022;SHT31;63583;49.976;20.182;2023-04-03T04:43:35;0.29;99.11
75022;SHT31;63583;49.976;20.182;2023-04-03T04:46:06;0.29;99.27
75022;SHT31;63583;49.976;20.182;2023-04-03T04:48:33;0.24;99.36
75022;SHT31;63583;49.976;20.182;2023-04-03T04:50:58;0.26;99.35
75022;SHT31;63583;49.976;20.182;2023-04-03T04:53:24;0.22;98.95
75022;SHT31;63583;49.976;20.182;2023-04-03T04:55:50;0.28;99.16
75022;SHT31;63583;49.976;20.182;2023-04-03T04:58:16;0.22;98.92
75022;SHT31;63583;49.976;20.182;2023-04-03T05:00:42;0.25;98.87
75022;SHT31;63583;49.976;20.182;2023-04-03T05:03:07;0.26;98.77
75022;SHT31;63583;49.976;20.182;2023-04-03T05:05:33;0.26;98.62
75022;SHT31;63583;49.976;20.182;2023-04-03T05:07:59;0.18;98.77
75022;SHT31;63583;49.976;20.182;2023-04-03T05:10:24;0.22;98.66
75022;SHT31;63583;49.976;20.182;2023-04-03T05:12:50;0.26;98.73
75022;SHT31;63583;49.976;20.182;2023-04-03T05:15:16;0.21;98.45
75022;SHT31;63583;49.976;20.182;2023-04-03T05:17:42;0.14;98.31
75022;SHT31;63583;49.976;20.182;2023-04-03T05:20:07;0.11;98.30
75022;SHT31;63583;49.976;20.182;2023-04-03T05:22:34;0.12;98.80
75022;SHT31;63583;49.976;20.182;2023-04-03T05:24:59;0.09;98.91
75022;SHT31;63583;49.976;20.182;2023-04-03T05:27:25;0.09;98.38
75022;SHT31;63583;49.976;20.182;2023-04-03T05:29:53;0.07;97.79
75022;SHT31;63583;49.976;20.182;2023-04-03T05:32:20;-0.06;98.70
75022;SHT31;63583;49.976;20.182;2023-04-03T05:34:46;-0.03;98.62
75022;SHT31;63583;49.976;20.182;2023-04-03T05:37:12;-0.02;98.80
75022;SHT31;63583;49.976;20.182;2023-04-03T05:39:37;0.05;98.08
75022;SHT31;63583;49.976;20.182;2023-04-03T05:42:06;-0.02;97.86
75022;SHT31;63583;49.976;20.182;2023-04-03T05:44:32;-0.03;97.75
75022;SHT31;63583;49.976;20.182;2023-04-03T05:46:58;-0.03;97.94
75022;SHT31;63583;49.976;20.182;2023-04-03T05:49:24;-0.03;98.64
75022;SHT31;63583;49.976;20.182;2023-04-03T05:51:50;-0.01;98.17
75022;SHT31;63583;49.976;20.182;2023-04-03T05:54:29;0.12;97.64
75022;SHT31;63583;49.976;20.182;2023-04-03T05:56:55;0.14;97.36
75022;SHT31;63583;49.976;20.182;2023-04-03T05:59:21;0.11;97.03
75022;SHT31;63583;49.976;20.182;2023-04-03T06:01:47;0.04;98.11
75022;SHT31;63583;49.976;20.182;2023-04-03T06:04:13;0.02;97.94
75022;SHT31;63583;49.976;20.182;2023-04-03T06:06:51;0.02;97.81
75022;SHT31;63583;49.976;20.182;2023-04-03T06:09:17;0.05;97.11
75022;SHT31;63583;49.976;20.182;2023-04-03T06:11:44;0.05;97.76
75022;SHT31;63583;49.976;20.182;2023-04-03T06:14:10;0.14;97.31
75022;SHT31;63583;49.976;20.182;2023-04-03T06:16:36;-0.03;97.06
75022;SHT31;63583;49.976;20.182;2023-04-03T06:19:02;0.05;95.96
75022;SHT31;63583;49.976;20.182;2023-04-03T06:21:28;-0.05;95.70
75022;SHT31;63583;49.976;20.182;2023-04-03T06:23:53;-0.03;96.76
75022;SHT31;63583;49.976;20.182;2023-04-03T06:26:19;0.08;96.21
75022;SHT31;63583;49.976;20.182;2023-04-03T06:28:46;-0.06;94.86
75022;SHT31;63583;49.976;20.182;2023-04-03T06:31:11;-0.16;94.53
75022;SHT31;63583;49.976;20.182;2023-04-03T06:33:37;-0.24;95.54
75022;SHT31;63583;49.976;20.182;2023-04-03T06:36:04;-0.31;96.52
75022;SHT31;63583;49.976;20.182;2023-04-03T06:38:31;-0.26;96.38
75022;SHT31;63583;49.976;20.182;2023-04-03T06:40:57;-0.31;96.83
75022;SHT31;63583;49.976;20.182;2023-04-03T06:43:23;-0.24;96.97
75022;SHT31;63583;49.976;20.182;2023-04-03T06:45:50;-0.31;96.91
75022;SHT31;63583;49.976;20.182;2023-04-03T06:48:15;-0.24;96.85
75022;SHT31;63583;49.976;20.182;2023-04-03T06:50:41;-0.12;96.17
75022;SHT31;63583;49.976;20.182;2023-04-03T06:53:07;0.07;95.05
75022;SHT31;63583;49.976;20.182;2023-04-03T06:55:33;0.01;94.46
75022;SHT31;63583;49.976;20.182;2023-04-03T06:57:59;0.01;94.09
75022;SHT31;63583;49.976;20.182;2023-04-03T07:00:26;0.05;93.89
75022;SHT31;63583;49.976;20.182;2023-04-03T07:02:51;0.09;94.44
75022;SHT31;63583;49.976;20.182;2023-04-03T07:05:17;0.28;93.71
75022;SHT31;63583;49.976;20.182;2023-04-03T07:07:43;0.21;93.95
75022;SHT31;63583;49.976;20.182;2023-04-03T07:10:09;0.41;92.85
75022;SHT31;63583;49.976;20.182;2023-04-03T07:12:36;0.50;92.87
75022;SHT31;63583;49.976;20.182;2023-04-03T07:15:02;0.50;90.23
75022;SHT31;63583;49.976;20.182;2023-04-03T07:17:28;0.41;89.41
75022;SHT31;63583;49.976;20.182;2023-04-03T07:19:54;0.43;89.55
75022;SHT31;63583;49.976;20.182;2023-04-03T07:22:19;0.53;90.00
75022;SHT31;63583;49.976;20.182;2023-04-03T07:24:45;0.42;89.91
75022;SHT31;63583;49.976;20.182;2023-04-03T07:27:11;0.48;88.68
75022;SHT31;63583;49.976;20.182;2023-04-03T07:29:38;0.55;89.20
75022;SHT31;63583;49.976;20.182;2023-04-03T07:32:04;0.50;88.32
75022;SHT31;63583;49.976;20.182;2023-04-03T07:34:31;0.46;86.45
75022;SHT31;63583;49.976;20.182;2023-04-03T07:36:58;0.38;88.80
75022;SHT31;63583;49.976;20.182;2023-04-03T07:39:24;0.26;89.39
75022;SHT31;63583;49.976;20.182;2023-04-03T07:41:50;0.33;89.84
75022;SHT31;63583;49.976;20.182;2023-04-03T07:44:16;0.29;87.61
75022;SHT31;63583;49.976;20.182;2023-04-03T07:46:41;0.24;88.84
75022;SHT31;63583;49.976;20.182;2023-04-03T07:49:07;0.19;89.43
75022;SHT31;63583;49.976;20.182;2023-04-03T07:51:33;0.15;89.05
75022;SHT31;63583;49.976;20.182;2023-04-03T07:53:59;0.33;87.74
75022;SHT31;63583;49.976;20.182;2023-04-03T07:56:24;0.29;90.14
75022;SHT31;63583;49.976;20.182;2023-04-03T07:58:50;0.19;88.91
75022;SHT31;63583;49.976;20.182;2023-04-03T08:01:16;0.15;89.66
75022;SHT31;63583;49.976;20.182;2023-04-03T08:03:42;0.25;86.99
75022;SHT31;63583;49.976;20.182;2023-04-03T08:06:08;0.07;88.70
75022;SHT31;63583;49.976;20.182;2023-04-03T08:08:34;-0.01;89.23
75022;SHT31;63583;49.976;20.182;2023-04-03T08:11:01;-0.06;88.99
75022;SHT31;63583;49.976;20.182;2023-04-03T08:13:29;-0.07;89.76
75022;SHT31;63583;49.976;20.182;2023-04-03T08:15:56;-0.02;89.14
75022;SHT31;63583;49.976;20.182;2023-04-03T08:18:23;0.02;88.35
75022;SHT31;63583;49.976;20.182;2023-04-03T08:20:50;0.14;89.28
75022;SHT31;63583;49.976;20.182;2023-04-03T08:23:18;0.11;87.94
75022;SHT31;63583;49.976;20.182;2023-04-03T08:25:44;0.22;88.58
75022;SHT31;63583;49.976;20.182;2023-04-03T08:28:11;0.15;89.85
75022;SHT31;63583;49.976;20.182;2023-04-03T08:30:39;-0.05;88.88
75022;SHT31;63583;49.976;20.182;2023-04-03T08:33:05;0.07;89.24
75022;SHT31;63583;49.976;20.182;2023-04-03T08:35:31;-0.03;90.66
75022;SHT31;63583;49.976;20.182;2023-04-03T08:37:57;-0.06;90.41
75022;SHT31;63583;49.976;20.182;2023-04-03T08:40:23;-0.06;90.37
75022;SHT31;63583;49.976;20.182;2023-04-03T08:48:06;-0.13;90.16
75022;SHT31;63583;49.976;20.182;2023-04-03T08:50:41;-0.12;90.49
75022;SHT31;63583;49.976;20.182;2023-04-03T08:53:14;-0.16;90.56
75022;SHT31;63583;49.976;20.182;2023-04-03T08:55:44;-0.24;91.96
75022;SHT31;63583;49.976;20.182;2023-04-03T08:58:19;-0.41;91.57
75022;SHT31;63583;49.976;20.182;2023-04-03T09:00:50;-0.56;93.51
75022;SHT31;63583;49.976;20.182;2023-04-03T09:03:20;-0.67;94.36
75022;SHT31;63583;49.976;20.182;2023-04-03T09:05:51;-0.61;95.03
75022;SHT31;63583;49.976;20.182;2023-04-03T09:10:44;-0.51;95.48
75022;SHT31;63583;49.976;20.182;2023-04-03T09:13:51;-0.41;95.61
75022;SHT31;63583;49.976;20.182;2023-04-03T09:18:53;-0.40;94.99
75022;SHT31;63583;49.976;20.182;2023-04-03T09:21:46;-0.43;95.24
75022;SHT31;63583;49.976;20.182;2023-04-03T09:24:14;-0.31;95.99
75022;SHT31;63583;49.976;20.182;2023-04-03T09:26:48;-0.40;94.86
75022;SHT31;63583;49.976;20.182;2023-04-03T09:29:22;-0.51;95.91
75022;SHT31;63583;49.976;20.182;2023-04-03T09:32:00;-0.37;96.13
75022;SHT31;63583;49.976;20.182;2023-04-03T09:34:35;-0.54;95.99
75022;SHT31;63583;49.976;20.182;2023-04-03T09:37:03;-0.56;96.11
75022;SHT31;63583;49.976;20.182;2023-04-03T09:39:44;-0.43;95.68
75022;SHT31;63583;49.976;20.182;2023-04-03T09:42:24;-0.64;96.54
75022;SHT31;63583;49.976;20.182;2023-04-03T09:45:21;-0.43;96.13
75022;SHT31;63583;49.976;20.182;2023-04-03T09:47:48;-0.62;96.09
75022;SHT31;63583;49.976;20.182;2023-04-03T09:52:48;-0.45;96.41
75022;SHT31;63583;49.976;20.182;2023-04-03T09:58:05;-0.43;95.30
75022;SHT31;63583;49.976;20.182;2023-04-03T10:00:57;-0.43;95.13
75022;SHT31;63583;49.976;20.182;2023-04-03T10:03:32;-0.34;94.54
75022;SHT31;63583;49.976;20.182;2023-04-03T10:06:00;-0.40;94.09
75022;SHT31;63583;49.976;20.182;2023-04-03T10:08:31;-0.30;94.31
75022;SHT31;63583;49.976;20.182;2023-04-03T10:11:10;-0.19;93.87
75022;SHT31;63583;49.976;20.182;2023-04-03T10:13:36;-0.30;93.89
75022;SHT31;63583;49.976;20.182;2023-04-03T10:16:12;-0.37;94.84
75022;SHT31;63583;49.976;20.182;2023-04-03T10:21:46;-0.57;96.11
75022;SHT31;63583;49.976;20.182;2023-04-03T10:24:22;-0.51;95.09
75022;SHT31;63583;49.976;20.182;2023-04-03T10:26:58;-0.45;95.81
75022;SHT31;63583;49.976;20.182;2023-04-03T10:34:35;-0.16;93.78
75022;SHT31;63583;49.976;20.182;2023-04-03T10:37:24;-0.14;93.11
75022;SHT31;63583;49.976;20.182;2023-04-03T10:40:04;-0.17;93.09
75022;SHT31;63583;49.976;20.182;2023-04-03T10:43:06;-0.22;93.04
75022;SHT31;63583;49.976;20.182;2023-04-03T10:51:14;-0.36;92.64
75022;SHT31;63583;49.976;20.182;2023-04-03T10:56:31;0.26;92.37
75022;SHT31;63583;49.976;20.182;2023-04-03T10:59:35;0.38;90.85
75022;SHT31;63583;49.976;20.182;2023-04-03T11:04:50;0.29;90.84
75022;SHT31;63583;49.976;20.182;2023-04-03T11:07:22;0.53;89.21
75022;SHT31;63583;49.976;20.182;2023-04-03T11:09:56;0.53;86.62
75022;SHT31;63583;49.976;20.182;2023-04-03T11:12:35;0.83;86.86
75022;SHT31;63583;49.976;20.182;2023-04-03T11:15:02;0.98;83.29
75022;SHT31;63583;49.976;20.182;2023-04-03T11:17:38;1.03;84.66
75022;SHT31;63583;49.976;20.182;2023-04-03T11:20:17;1.15;82.01
75022;SHT31;63583;49.976;20.182;2023-04-03T11:22:46;0.94;83.74
75022;SHT31;63583;49.976;20.182;2023-04-03T11:27:57;0.87;83.98
75022;SHT31;63583;49.976;20.182;2023-04-03T11:30:49;1.01;84.90
75022;SHT31;63583;49.976;20.182;2023-04-03T11:35:54;1.07;83.29
75022;SHT31;63583;49.976;20.182;2023-04-03T11:38:27;1.18;83.64
75022;SHT31;63583;49.976;20.182;2023-04-03T11:40:56;1.18;82.85
75022;SHT31;63583;49.976;20.182;2023-04-03T11:43:28;1.49;83.30
75022;SHT31;63583;49.976;20.182;2023-04-03T11:45:58;1.64;81.88
75022;SHT31;63583;49.976;20.182;2023-04-03T11:53:53;1.45;83.52
75022;SHT31;63583;49.976;20.182;2023-04-03T12:02:01;1.70;81.63
75022;SHT31;63583;49.976;20.182;2023-04-03T12:04:28;1.74;81.27
75022;SHT31;63583;49.976;20.182;2023-04-03T12:07:02;1.52;79.69
75022;SHT31;63583;49.976;20.182;2023-04-03T12:12:31;1.30;77.58
75022;SHT31;63583;49.976;20.182;2023-04-03T12:15:24;1.18;79.69
75022;SHT31;63583;49.976;20.182;2023-04-03T12:17:50;1.22;81.71
75022;SHT31;63583;49.976;20.182;2023-04-03T12:23:24;1.17;79.68
75022;SHT31;63583;49.976;20.182;2023-04-03T12:25:51;1.20;79.43
75022;SHT31;63583;49.976;20.182;2023-04-03T12:28:17;1.24;78.94
75022;SHT31;63583;49.976;20.182;2023-04-03T12:30:43;1.22;76.79
75022;SHT31;63583;49.976;20.182;2023-04-03T12:33:19;1.09;77.90
75022;SHT31;63583;49.976;20.182;2023-04-03T12:35:57;1.09;75.74
75022;SHT31;63583;49.976;20.182;2023-04-03T12:38:49;1.41;78.62
75022;SHT31;63583;49.976;20.182;2023-04-03T12:41:32;1.05;76.87
75022;SHT31;63583;49.976;20.182;2023-04-03T12:44:18;0.93;76.24
75022;SHT31;63583;49.976;20.182;2023-04-03T12:46:49;1.00;75.92
75022;SHT31;63583;49.976;20.182;2023-04-03T12:49:38;1.09;76.83
75022;SHT31;63583;49.976;20.182;2023-04-03T12:52:22;1.08;77.14
75022;SHT31;63583;49.976;20.182;2023-04-03T12:54:50;1.18;78.45
75022;SHT31;63583;49.976;20.182;2023-04-03T12:57:21;1.03;75.42
75022;SHT31;63583;49.976;20.182;2023-04-03T12:59:49;1.01;76.25
75022;SHT31;63583;49.976;20.182;2023-04-03T13:02:32;1.08;77.16
75022;SHT31;63583;49.976;20.182;2023-04-03T13:05:08;1.18;76.63
75022;SHT31;63583;49.976;20.182;2023-04-03T13:07:36;1.27;73.89
75022;SHT31;63583;49.976;20.182;2023-04-03T13:12:34;1.48;74.14
75022;SHT31;63583;49.976;20.182;2023-04-03T13:15:11;1.46;75.63
75022;SHT31;63583;49.976;20.182;2023-04-03T13:17:38;1.59;76.62
75022;SHT31;63583;49.976;20.182;2023-04-03T13:20:19;1.46;75.22
75022;SHT31;63583;49.976;20.182;2023-04-03T13:25:24;1.55;76.02
75022;SHT31;63583;49.976;20.182;2023-04-03T13:27:51;1.51;75.99
75022;SHT31;63583;49.976;20.182;2023-04-03T13:30:24;1.52;76.51
75022;SHT31;63583;49.976;20.182;2023-04-03T13:32:51;1.58;76.35
75022;SHT31;63583;49.976;20.182;2023-04-03T13:35:31;1.45;73.86
75022;SHT31;63583;49.976;20.182;2023-04-03T13:38:41;1.35;73.13
75022;SHT31;63583;49.976;20.182;2023-04-03T13:43:21;1.45;74.23
75022;SHT31;63583;49.976;20.182;2023-04-03T13:46:01;1.43;72.53
75022;SHT31;63583;49.976;20.182;2023-04-03T13:48:48;1.53;73.00
75022;SHT31;63583;49.976;20.182;2023-04-03T13:53:50;1.46;73.46
75022;SHT31;63583;49.976;20.182;2023-04-03T13:56:19;1.48;72.68
75022;SHT31;63583;49.976;20.182;2023-04-03T14:01:21;1.63;75.15
75022;SHT31;63583;49.976;20.182;2023-04-03T14:04:09;1.58;71.80
75022;SHT31;63583;49.976;20.182;2023-04-03T14:06:35;1.46;70.34
75022;SHT31;63583;49.976;20.182;2023-04-03T14:09:01;1.51;71.06
75022;SHT31;63583;49.976;20.182;2023-04-03T14:11:29;1.49;71.78
75022;SHT31;63583;49.976;20.182;2023-04-03T14:14:02;1.59;71.28
75022;SHT31;63583;49.976;20.182;2023-04-03T14:16:32;1.63;73.50
75022;SHT31;63583;49.976;20.182;2023-04-03T14:19:00;1.58;72.61
75022;SHT31;63583;49.976;20.182;2023-04-03T14:21:26;1.55;74.28
75022;SHT31;63583;49.976;20.182;2023-04-03T14:23:52;1.55;74.95
75022;SHT31;63583;49.976;20.182;2023-04-03T14:26:21;1.53;75.73
75022;SHT31;63583;49.976;20.182;2023-04-03T14:28:49;1.49;74.60
75022;SHT31;63583;49.976;20.182;2023-04-03T14:31:15;1.48;76.60
75022;SHT31;63583;49.976;20.182;2023-04-03T14:33:41;1.42;75.99
75022;SHT31;63583;49.976;20.182;2023-04-03T14:38:37;1.28;71.67
75022;SHT31;63583;49.976;20.182;2023-04-03T14:41:03;1.21;72.59
75022;SHT31;63583;49.976;20.182;2023-04-03T14:43:29;1.20;70.99
75022;SHT31;63583;49.976;20.182;2023-04-03T14:45:55;1.20;70.47
75022;SHT31;63583;49.976;20.182;2023-04-03T14:48:23;1.15;73.03
75022;SHT31;63583;49.976;20.182;2023-04-03T14:50:51;1.18;73.18
75022;SHT31;63583;49.976;20.182;2023-04-03T14:53:17;1.20;72.58
75022;SHT31;63583;49.976;20.182;2023-04-03T14:55:45;1.18;71.36
75022;SHT31;63583;49.976;20.182;2023-04-03T14:58:13;1.20;69.02
75022;SHT31;63583;49.976;20.182;2023-04-03T15:00:41;1.20;69.22
75022;SHT31;63583;49.976;20.182;2023-04-03T15:03:19;1.15;68.39
75022;SHT31;63583;49.976;20.182;2023-04-03T15:05:46;1.14;67.82
75022;SHT31;63583;49.976;20.182;2023-04-03T15:08:24;1.20;67.60
75022;SHT31;63583;49.976;20.182;2023-04-03T15:10:52;1.21;68.98
75022;SHT31;63583;49.976;20.182;2023-04-03T15:13:24;1.21;69.48
75022;SHT31;63583;49.976;20.182;2023-04-03T15:15:51;1.15;72.09
75022;SHT31;63583;49.976;20.182;2023-04-03T15:18:23;1.24;70.30
75022;SHT31;63583;49.976;20.182;2023-04-03T15:20:52;1.20;71.70
75022;SHT31;63583;49.976;20.182;2023-04-03T15:23:20;1.24;70.94
75022;SHT31;63583;49.976;20.182;2023-04-03T15:25:52;1.20;72.59
75022;SHT31;63583;49.976;20.182;2023-04-03T15:28:33;1.20;71.73
75022;SHT31;63583;49.976;20.182;2023-04-03T15:31:00;1.17;70.37
75022;SHT31;63583;49.976;20.182;2023-04-03T15:33:26;1.18;70.93
75022;SHT31;63583;49.976;20.182;2023-04-03T15:35:52;1.14;72.22
75022;SHT31;63583;49.976;20.182;2023-04-03T15:38:18;1.20;69.55
75022;SHT31;63583;49.976;20.182;2023-04-03T15:40:43;1.24;71.25
75022;SHT31;63583;49.976;20.182;2023-04-03T15:43:09;1.24;71.85
75022;SHT31;63583;49.976;20.182;2023-04-03T15:45:36;1.27;71.56
75022;SHT31;63583;49.976;20.182;2023-04-03T15:48:03;1.28;71.78
75022;SHT31;63583;49.976;20.182;2023-04-03T15:50:34;1.28;71.18
75022;SHT31;63583;49.976;20.182;2023-04-03T15:53:00;1.31;71.38
75022;SHT31;63583;49.976;20.182;2023-04-03T15:55:33;1.34;72.90
75022;SHT31;63583;49.976;20.182;2023-04-03T15:57:59;1.30;72.63
75022;SHT31;63583;49.976;20.182;2023-04-03T16:00:27;1.28;74.54
75022;SHT31;63583;49.976;20.182;2023-04-03T16:03:05;1.24;74.03
75022;SHT31;63583;49.976;20.182;2023-04-03T16:05:31;1.30;73.27
75022;SHT31;63583;49.976;20.182;2023-04-03T16:07:58;1.34;73.35
75022;SHT31;63583;49.976;20.182;2023-04-03T16:10:24;1.34;74.78
75022;SHT31;63583;49.976;20.182;2023-04-03T16:12:50;1.36;74.32
75022;SHT31;63583;49.976;20.182;2023-04-03T16:15:16;1.35;74.76
75022;SHT31;63583;49.976;20.182;2023-04-03T16:17:42;1.45;71.47
75022;SHT31;63583;49.976;20.182;2023-04-03T16:20:09;1.51;72.76
75022;SHT31;63583;49.976;20.182;2023-04-03T16:22:35;1.52;72.09
75022;SHT31;63583;49.976;20.182;2023-04-03T16:25:04;1.46;74.13
75022;SHT31;63583;49.976;20.182;2023-04-03T16:27:30;1.46;73.96
75022;SHT31;63583;49.976;20.182;2023-04-03T16:29:57;1.48;73.08
75022;SHT31;63583;49.976;20.182;2023-04-03T16:32:24;1.48;74.22
75022;SHT31;63583;49.976;20.182;2023-04-03T16:34:52;1.46;73.12
75022;SHT31;63583;49.976;20.182;2023-04-03T16:37:17;1.45;71.65
75022;SHT31;63583;49.976;20.182;2023-04-03T16:39:44;1.42;71.82
75022;SHT31;63583;49.976;20.182;2023-04-03T16:42:09;1.46;69.49
75022;SHT31;63583;49.976;20.182;2023-04-03T16:44:36;1.39;71.29
75022;SHT31;63583;49.976;20.182;2023-04-03T16:47:02;1.31;73.95
75022;SHT31;63583;49.976;20.182;2023-04-03T16:49:28;1.25;72.80
75022;SHT31;63583;49.976;20.182;2023-04-03T16:52:01;1.25;74.56
75022;SHT31;63583;49.976;20.182;2023-04-03T16:54:27;1.27;73.81
75022;SHT31;63583;49.976;20.182;2023-04-03T16:56:52;1.24;73.20
75022;SHT31;63583;49.976;20.182;2023-04-03T16:59:18;1.17;73.84
75022;SHT31;63583;49.976;20.182;2023-04-03T17:01:44;1.25;72.80